sensor_id;sensor_type;location;lat;lon;timestamp;P1;durP1;ratioP1;P2;durP2;ratioP2
71162;SDS011;58858;50.948;6.566;2022-10-16T00:04:17;3.47;;;1.10;;
71162;SDS011;58858;50.948;6.566;2022-10-16T00:14:18;2.05;;;1.05;;
71162;SDS011;58858;50.948;6.566;2022-10-16T00:24:19;4.15;;;1.42;;
71162;SDS011;58858;50.948;6.566;2022-10-16T00:34:20;8.85;;;1.10;;
71162;SDS011;58858;50.948;6.566;2022-10-16T00:54:41;3.40;;;1.10;;
71162;SDS011;58858;50.948;6.566;2022-10-16T01:04:47;2.28;;;0.90;;
71162;SDS011;58858;50.948;6.566;2022-10-16T01:14:54;7.25;;;2.25;;
71162;SDS011;58858;50.948;6.566;2022-10-16T01:24:59;2.75;;;0.70;;
71162;SDS011;58858;50.948;6.566;2022-10-16T01:45:24;0.80;;;0.80;;
71162;SDS011;58858;50.948;6.566;2022-10-16T01:55:28;3.63;;;1.40;;
71162;SDS011;58858;50.948;6.566;2022-10-16T02:05:42;1.00;;;0.90;;
71162;SDS011;58858;50.948;6.566;2022-10-16T02:15:47;1.95;;;0.93;;
71162;SDS011;58858;50.948;6.566;2022-10-16T02:25:48;2.40;;;0.88;;
71162;SDS011;58858;50.948;6.566;2022-10-16T02:35:51;3.47;;;0.68;;
71162;SDS011;58858;50.948;6.566;2022-10-16T02:45:53;1.58;;;0.68;;
71162;SDS011;58858;50.948;6.566;2022-10-16T02:55:54;1.17;;;0.90;;
71162;SDS011;58858;50.948;6.566;2022-10-16T03:05:55;1.90;;;0.65;;
71162;SDS011;58858;50.948;6.566;2022-10-16T03:15:56;0.85;;;0.85;;
71162;SDS011;58858;50.948;6.566;2022-10-16T03:25:57;0.75;;;0.70;;
71162;SDS011;58858;50.948;6.566;2022-10-16T03:35:58;1.02;;;0.95;;
71162;SDS011;58858;50.948;6.566;2022-10-16T03:45:59;1.20;;;0.70;;
71162;SDS011;58858;50.948;6.566;2022-10-16T03:56:00;2.30;;;1.00;;
71162;SDS011;58858;50.948;6.566;2022-10-16T04:06:01;4.60;;;1.13;;
71162;SDS011;58858;50.948;6.566;2022-10-16T04:16:02;2.45;;;1.08;;
71162;SDS011;58858;50.948;6.566;2022-10-16T04:26:03;1.05;;;0.70;;
71162;SDS011;58858;50.948;6.566;2022-10-16T04:36:04;1.73;;;0.90;;
71162;SDS011;58858;50.948;6.566;2022-10-16T04:46:06;0.82;;;0.68;;
71162;SDS011;58858;50.948;6.566;2022-10-16T04:56:07;2.60;;;1.00;;
71162;SDS011;58858;50.948;6.566;2022-10-16T05:06:08;0.80;;;0.80;;
71162;SDS011;58858;50.948;6.566;2022-10-16T05:16:09;4.55;;;0.93;;
71162;SDS011;58858;50.948;6.566;2022-10-16T05:26:10;1.15;;;0.95;;
71162;SDS011;58858;50.948;6.566;2022-10-16T05:36:11;0.98;;;0.90;;
71162;SDS011;58858;50.948;6.566;2022-10-16T05:46:13;1.27;;;1.17;;
71162;SDS011;58858;50.948;6.566;2022-10-16T05:56:15;2.20;;;1.40;;
71162;SDS011;58858;50.948;6.566;2022-10-16T06:06:17;2.17;;;1.15;;
71162;SDS011;58858;50.948;6.566;2022-10-16T06:16:21;4.70;;;0.93;;
71162;SDS011;58858;50.948;6.566;2022-10-16T06:26:23;1.65;;;1.13;;
71162;SDS011;58858;50.948;6.566;2022-10-16T06:36:26;1.80;;;1.42;;
71162;SDS011;58858;50.948;6.566;2022-10-16T06:46:27;3.58;;;1.08;;
71162;SDS011;58858;50.948;6.566;2022-10-16T06:56:29;3.60;;;1.00;;
71162;SDS011;58858;50.948;6.566;2022-10-16T07:06:32;8.90;;;1.60;;
71162;SDS011;58858;50.948;6.566;2022-10-16T07:16:36;1.40;;;0.95;;
71162;SDS011;58858;50.948;6.566;2022-10-16T07:26:37;3.88;;;1.20;;
71162;SDS011;58858;50.948;6.566;2022-10-16T07:36:39;1.50;;;0.90;;
71162;SDS011;58858;50.948;6.566;2022-10-16T07:46:40;1.90;;;0.88;;
71162;SDS011;58858;50.948;6.566;2022-10-16T07:56:41;2.40;;;1.20;;
71162;SDS011;58858;50.948;6.566;2022-10-16T08:06:42;4.72;;;0.80;;
71162;SDS011;58858;50.948;6.566;2022-10-16T08:16:43;2.05;;;0.90;;
71162;SDS011;58858;50.948;6.566;2022-10-16T08:26:45;1.80;;;0.90;;
71162;SDS011;58858;50.948;6.566;2022-10-16T08:36:46;2.67;;;1.00;;
71162;SDS011;58858;50.948;6.566;2022-10-16T08:46:56;2.72;;;1.08;;
71162;SDS011;58858;50.948;6.566;2022-10-16T08:57:07;3.22;;;0.82;;
71162;SDS011;58858;50.948;6.566;2022-10-16T09:07:13;2.35;;;0.55;;
71162;SDS011;58858;50.948;6.566;2022-10-16T09:28:32;4.20;;;0.70;;
71162;SDS011;58858;50.948;6.566;2022-10-16T09:38:34;6.90;;;0.77;;
71162;SDS011;58858;50.948;6.566;2022-10-16T09:48:43;4.60;;;1.20;;
71162;SDS011;58858;50.948;6.566;2022-10-16T09:58:49;11.75;;;1.23;;
71162;SDS011;58858;50.948;6.566;2022-10-16T10:09:05;2.58;;;1.23;;
71162;SDS011;58858;50.948;6.566;2022-10-16T10:19:19;1.48;;;0.43;;
71162;SDS011;58858;50.948;6.566;2022-10-16T10:29:27;1.27;;;0.57;;
71162;SDS011;58858;50.948;6.566;2022-10-16T10:39:35;1.45;;;0.40;;
71162;SDS011;58858;50.948;6.566;2022-10-16T10:49:49;1.38;;;0.47;;
71162;SDS011;58858;50.948;6.566;2022-10-16T11:00:35;2.33;;;0.60;;
71162;SDS011;58858;50.948;6.566;2022-10-16T11:11:34;0.50;;;0.50;;
71162;SDS011;58858;50.948;6.566;2022-10-16T11:21:23;0.43;;;0.25;;
71162;SDS011;58858;50.948;6.566;2022-10-16T11:31:29;6.32;;;1.30;;
71162;SDS011;58858;50.948;6.566;2022-10-16T12:02:32;6.10;;;1.27;;
71162;SDS011;58858;50.948;6.566;2022-10-16T12:22:37;1.08;;;0.45;;
71162;SDS011;58858;50.948;6.566;2022-10-16T12:32:42;1.20;;;0.80;;
71162;SDS011;58858;50.948;6.566;2022-10-16T12:42:43;1.83;;;0.55;;
71162;SDS011;58858;50.948;6.566;2022-10-16T12:52:44;4.32;;;1.42;;
71162;SDS011;58858;50.948;6.566;2022-10-16T13:13:19;3.55;;;0.73;;
71162;SDS011;58858;50.948;6.566;2022-10-16T13:33:47;2.30;;;0.75;;
71162;SDS011;58858;50.948;6.566;2022-10-16T13:43:53;2.15;;;0.43;;
71162;SDS011;58858;50.948;6.566;2022-10-16T13:53:57;2.22;;;0.75;;
71162;SDS011;58858;50.948;6.566;2022-10-16T14:04:17;1.98;;;0.55;;
71162;SDS011;58858;50.948;6.566;2022-10-16T14:14:18;1.40;;;0.63;;
71162;SDS011;58858;50.948;6.566;2022-10-16T14:24:24;1.58;;;0.50;;
71162;SDS011;58858;50.948;6.566;2022-10-16T14:34:36;6.47;;;0.98;;
71162;SDS011;58858;50.948;6.566;2022-10-16T14:44:40;2.20;;;0.68;;
71162;SDS011;58858;50.948;6.566;2022-10-16T14:54:41;4.47;;;1.08;;
71162;SDS011;58858;50.948;6.566;2022-10-16T15:04:43;3.10;;;0.63;;
71162;SDS011;58858;50.948;6.566;2022-10-16T15:14:44;1.85;;;0.57;;
71162;SDS011;58858;50.948;6.566;2022-10-16T15:24:45;2.88;;;0.77;;
71162;SDS011;58858;50.948;6.566;2022-10-16T15:34:46;5.00;;;0.90;;
71162;SDS011;58858;50.948;6.566;2022-10-16T15:44:47;2.63;;;0.77;;
71162;SDS011;58858;50.948;6.566;2022-10-16T15:54:48;14.05;;;7.80;;
71162;SDS011;58858;50.948;6.566;2022-10-16T16:04:49;5.45;;;3.40;;
71162;SDS011;58858;50.948;6.566;2022-10-16T16:14:50;6.72;;;4.97;;
71162;SDS011;58858;50.948;6.566;2022-10-16T16:24:51;10.40;;;4.60;;
71162;SDS011;58858;50.948;6.566;2022-10-16T16:34:52;5.20;;;2.83;;
71162;SDS011;58858;50.948;6.566;2022-10-16T16:44:53;10.27;;;5.70;;
71162;SDS011;58858;50.948;6.566;2022-10-16T16:54:55;10.32;;;5.85;;
71162;SDS011;58858;50.948;6.566;2022-10-16T17:04:56;2.13;;;0.82;;
71162;SDS011;58858;50.948;6.566;2022-10-16T17:14:58;2.10;;;0.60;;
71162;SDS011;58858;50.948;6.566;2022-10-16T17:24:59;1.15;;;0.68;;
71162;SDS011;58858;50.948;6.566;2022-10-16T17:35:02;1.45;;;0.80;;
71162;SDS011;58858;50.948;6.566;2022-10-16T17:45:03;4.03;;;2.28;;
71162;SDS011;58858;50.948;6.566;2022-10-16T17:55:04;3.72;;;1.90;;
71162;SDS011;58858;50.948;6.566;2022-10-16T18:05:06;5.88;;;2.65;;
71162;SDS011;58858;50.948;6.566;2022-10-16T18:15:07;8.57;;;4.38;;
71162;SDS011;58858;50.948;6.566;2022-10-16T18:25:09;5.70;;;2.78;;
71162;SDS011;58858;50.948;6.566;2022-10-16T18:35:10;1.77;;;0.80;;
71162;SDS011;58858;50.948;6.566;2022-10-16T18:45:11;3.47;;;1.30;;
71162;SDS011;58858;50.948;6.566;2022-10-16T18:55:12;3.95;;;1.00;;
71162;SDS011;58858;50.948;6.566;2022-10-16T19:05:13;1.58;;;1.10;;
71162;SDS011;58858;50.948;6.566;2022-10-16T19:15:14;5.03;;;2.88;;
71162;SDS011;58858;50.948;6.566;2022-10-16T19:25:15;6.88;;;4.03;;
71162;SDS011;58858;50.948;6.566;2022-10-16T19:35:17;4.28;;;2.60;;
71162;SDS011;58858;50.948;6.566;2022-10-16T19:45:18;7.63;;;4.90;;
71162;SDS011;58858;50.948;6.566;2022-10-16T19:55:19;5.70;;;3.45;;
71162;SDS011;58858;50.948;6.566;2022-10-16T20:05:20;7.05;;;4.47;;
71162;SDS011;58858;50.948;6.566;2022-10-16T20:15:21;3.05;;;2.10;;
71162;SDS011;58858;50.948;6.566;2022-10-16T20:25:22;3.92;;;1.50;;
71162;SDS011;58858;50.948;6.566;2022-10-16T20:35:23;6.38;;;3.45;;
71162;SDS011;58858;50.948;6.566;2022-10-16T20:45:24;2.58;;;1.83;;
71162;SDS011;58858;50.948;6.566;2022-10-16T20:55:25;2.88;;;2.20;;
71162;SDS011;58858;50.948;6.566;2022-10-16T21:05:26;3.30;;;2.15;;
71162;SDS011;58858;50.948;6.566;2022-10-16T21:15:29;2.10;;;1.60;;
71162;SDS011;58858;50.948;6.566;2022-10-16T21:25:30;3.00;;;1.95;;
71162;SDS011;58858;50.948;6.566;2022-10-16T21:35:31;4.97;;;1.98;;
71162;SDS011;58858;50.948;6.566;2022-10-16T21:45:32;2.00;;;1.80;;
71162;SDS011;58858;50.948;6.566;2022-10-16T21:55:34;3.67;;;2.45;;
71162;SDS011;58858;50.948;6.566;2022-10-16T22:05:35;2.30;;;2.10;;
71162;SDS011;58858;50.948;6.566;2022-10-16T22:15:36;4.25;;;2.30;;
71162;SDS011;58858;50.948;6.566;2022-10-16T22:25:37;4.82;;;2.63;;
71162;SDS011;58858;50.948;6.566;2022-10-16T22:35:39;3.25;;;2.10;;
71162;SDS011;58858;50.948;6.566;2022-10-16T22:45:40;8.68;;;2.95;;
71162;SDS011;58858;50.948;6.566;2022-10-16T22:55:41;4.72;;;2.70;;
71162;SDS011;58858;50.948;6.566;2022-10-16T23:05:44;3.60;;;2.70;;
71162;SDS011;58858;50.948;6.566;2022-10-16T23:15:45;7.13;;;3.28;;
71162;SDS011;58858;50.948;6.566;2022-10-16T23:25:46;6.03;;;3.60;;
71162;SDS011;58858;50.948;6.566;2022-10-16T23:35:47;5.90;;;3.55;;
71162;SDS011;58858;50.948;6.566;2022-10-16T23:45:48;7.43;;;3.60;;
71162;SDS011;58858;50.948;6.566;2022-10-16T23:55:49;5.25;;;3.13;;
